sensor_id;sensor_type;location;lat;lon;timestamp;P1;durP1;ratioP1;P2;durP2;ratioP2
11090;SDS011;5599;52.210;21.046;2023-06-26T00:00:20;10.10;;;9.10;;
11090;SDS011;5599;52.210;21.046;2023-06-26T00:02:51;11.57;;;8.90;;
11090;SDS011;5599;52.210;21.046;2023-06-26T00:05:20;11.45;;;8.80;;
11090;SDS011;5599;52.210;21.046;2023-06-26T00:07:49;11.45;;;8.07;;
11090;SDS011;5599;52.210;21.046;2023-06-26T00:10:18;10.88;;;8.25;;
11090;SDS011;5599;52.210;21.046;2023-06-26T00:12:47;10.10;;;9.10;;
11090;SDS011;5599;52.210;21.046;2023-06-26T00:15:17;9.32;;;8.30;;
11090;SDS011;5599;52.210;21.046;2023-06-26T00:17:46;9.43;;;8.23;;
11090;SDS011;5599;52.210;21.046;2023-06-26T00:20:16;10.13;;;9.13;;
11090;SDS011;5599;52.210;21.046;2023-06-26T00:22:46;9.30;;;7.72;;
11090;SDS011;5599;52.210;21.046;2023-06-26T00:25:17;10.25;;;8.65;;
11090;SDS011;5599;52.210;21.046;2023-06-26T00:27:46;9.75;;;8.75;;
11090;SDS011;5599;52.210;21.046;2023-06-26T00:30:16;8.77;;;7.97;;
11090;SDS011;5599;52.210;21.046;2023-06-26T00:32:45;10.07;;;8.20;;
11090;SDS011;5599;52.210;21.046;2023-06-26T00:35:14;11.02;;;9.02;;
11090;SDS011;5599;52.210;21.046;2023-06-26T00:37:45;9.85;;;8.88;;
11090;SDS011;5599;52.210;21.046;2023-06-26T00:40:15;9.88;;;8.80;;
11090;SDS011;5599;52.210;21.046;2023-06-26T00:42:44;9.50;;;8.60;;
11090;SDS011;5599;52.210;21.046;2023-06-26T00:45:14;9.30;;;8.45;;
11090;SDS011;5599;52.210;21.046;2023-06-26T00:47:55;10.48;;;8.68;;
11090;SDS011;5599;52.210;21.046;2023-06-26T00:50:25;11.50;;;8.73;;
11090;SDS011;5599;52.210;21.046;2023-06-26T00:52:55;10.88;;;9.65;;
11090;SDS011;5599;52.210;21.046;2023-06-26T00:55:28;13.13;;;9.38;;
11090;SDS011;5599;52.210;21.046;2023-06-26T00:57:58;10.98;;;9.18;;
11090;SDS011;5599;52.210;21.046;2023-06-26T01:00:27;12.65;;;10.05;;
11090;SDS011;5599;52.210;21.046;2023-06-26T01:02:57;10.65;;;9.45;;
11090;SDS011;5599;52.210;21.046;2023-06-26T01:05:27;12.30;;;9.70;;
11090;SDS011;5599;52.210;21.046;2023-06-26T01:07:58;10.45;;;9.35;;
11090;SDS011;5599;52.210;21.046;2023-06-26T01:10:28;10.38;;;9.38;;
11090;SDS011;5599;52.210;21.046;2023-06-26T01:12:59;11.32;;;9.15;;
11090;SDS011;5599;52.210;21.046;2023-06-26T01:15:28;10.07;;;9.05;;
11090;SDS011;5599;52.210;21.046;2023-06-26T01:17:57;11.70;;;10.02;;
11090;SDS011;5599;52.210;21.046;2023-06-26T01:20:30;10.95;;;9.90;;
11090;SDS011;5599;52.210;21.046;2023-06-26T01:23:05;13.27;;;9.50;;
11090;SDS011;5599;52.210;21.046;2023-06-26T01:25:41;12.45;;;9.40;;
11090;SDS011;5599;52.210;21.046;2023-06-26T01:28:24;11.77;;;10.68;;
11090;SDS011;5599;52.210;21.046;2023-06-26T01:30:55;11.82;;;10.15;;
11090;SDS011;5599;52.210;21.046;2023-06-26T01:33:25;12.15;;;10.50;;
11090;SDS011;5599;52.210;21.046;2023-06-26T01:35:55;11.70;;;10.50;;
11090;SDS011;5599;52.210;21.046;2023-06-26T01:38:24;12.77;;;11.18;;
11090;SDS011;5599;52.210;21.046;2023-06-26T01:40:56;16.45;;;11.20;;
11090;SDS011;5599;52.210;21.046;2023-06-26T01:43:27;12.98;;;11.50;;
11090;SDS011;5599;52.210;21.046;2023-06-26T01:46:06;13.15;;;10.40;;
11090;SDS011;5599;52.210;21.046;2023-06-26T01:48:44;11.85;;;10.40;;
11090;SDS011;5599;52.210;21.046;2023-06-26T01:51:18;13.82;;;11.35;;
11090;SDS011;5599;52.210;21.046;2023-06-26T01:53:55;12.25;;;10.90;;
11090;SDS011;5599;52.210;21.046;2023-06-26T01:56:27;12.60;;;10.80;;
11090;SDS011;5599;52.210;21.046;2023-06-26T01:58:59;12.85;;;11.55;;
11090;SDS011;5599;52.210;21.046;2023-06-26T02:01:32;14.05;;;12.15;;
11090;SDS011;5599;52.210;21.046;2023-06-26T02:04:02;15.88;;;12.60;;
11090;SDS011;5599;52.210;21.046;2023-06-26T02:06:31;14.33;;;12.87;;
11090;SDS011;5599;52.210;21.046;2023-06-26T02:09:00;18.05;;;13.73;;
11090;SDS011;5599;52.210;21.046;2023-06-26T02:11:30;15.45;;;13.48;;
11090;SDS011;5599;52.210;21.046;2023-06-26T02:14:01;17.08;;;13.40;;
11090;SDS011;5599;52.210;21.046;2023-06-26T02:16:31;16.77;;;15.07;;
11090;SDS011;5599;52.210;21.046;2023-06-26T02:19:00;14.10;;;12.60;;
11090;SDS011;5599;52.210;21.046;2023-06-26T02:21:29;15.45;;;13.75;;
11090;SDS011;5599;52.210;21.046;2023-06-26T02:23:58;15.57;;;12.95;;
11090;SDS011;5599;52.210;21.046;2023-06-26T02:26:28;11.93;;;10.73;;
11090;SDS011;5599;52.210;21.046;2023-06-26T02:28:57;13.75;;;10.35;;
11090;SDS011;5599;52.210;21.046;2023-06-26T02:31:27;12.95;;;10.90;;
11090;SDS011;5599;52.210;21.046;2023-06-26T02:33:56;13.75;;;12.45;;
11090;SDS011;5599;52.210;21.046;2023-06-26T02:36:26;16.10;;;12.40;;
11090;SDS011;5599;52.210;21.046;2023-06-26T02:38:55;14.40;;;12.15;;
11090;SDS011;5599;52.210;21.046;2023-06-26T02:41:24;14.57;;;12.85;;
11090;SDS011;5599;52.210;21.046;2023-06-26T02:43:54;16.25;;;12.82;;
11090;SDS011;5599;52.210;21.046;2023-06-26T02:46:25;17.05;;;12.50;;
11090;SDS011;5599;52.210;21.046;2023-06-26T02:48:57;14.32;;;11.48;;
11090;SDS011;5599;52.210;21.046;2023-06-26T02:51:26;14.43;;;11.93;;
11090;SDS011;5599;52.210;21.046;2023-06-26T02:53:57;15.00;;;12.75;;
11090;SDS011;5599;52.210;21.046;2023-06-26T02:56:26;12.57;;;11.27;;
11090;SDS011;5599;52.210;21.046;2023-06-26T02:58:57;14.45;;;11.70;;
11090;SDS011;5599;52.210;21.046;2023-06-26T03:01:28;13.23;;;11.75;;
11090;SDS011;5599;52.210;21.046;2023-06-26T03:03:58;15.10;;;10.65;;
11090;SDS011;5599;52.210;21.046;2023-06-26T03:06:29;13.63;;;11.60;;
11090;SDS011;5599;52.210;21.046;2023-06-26T03:08:59;13.00;;;11.23;;
11090;SDS011;5599;52.210;21.046;2023-06-26T03:11:28;13.27;;;11.90;;
11090;SDS011;5599;52.210;21.046;2023-06-26T03:13:57;14.65;;;12.30;;
11090;SDS011;5599;52.210;21.046;2023-06-26T03:16:27;13.32;;;11.43;;
11090;SDS011;5599;52.210;21.046;2023-06-26T03:18:56;14.18;;;11.40;;
11090;SDS011;5599;52.210;21.046;2023-06-26T03:21:27;11.45;;;10.27;;
11090;SDS011;5599;52.210;21.046;2023-06-26T03:23:57;13.18;;;11.75;;
11090;SDS011;5599;52.210;21.046;2023-06-26T03:26:27;13.48;;;11.63;;
11090;SDS011;5599;52.210;21.046;2023-06-26T03:28:59;14.95;;;11.20;;
11090;SDS011;5599;52.210;21.046;2023-06-26T03:31:29;13.85;;;10.18;;
11090;SDS011;5599;52.210;21.046;2023-06-26T03:33:58;11.88;;;10.65;;
11090;SDS011;5599;52.210;21.046;2023-06-26T03:36:29;13.23;;;11.15;;
11090;SDS011;5599;52.210;21.046;2023-06-26T03:38:59;13.90;;;10.65;;
11090;SDS011;5599;52.210;21.046;2023-06-26T03:41:29;12.35;;;10.88;;
11090;SDS011;5599;52.210;21.046;2023-06-26T03:43:58;12.35;;;10.30;;
11090;SDS011;5599;52.210;21.046;2023-06-26T03:46:35;13.73;;;10.82;;
11090;SDS011;5599;52.210;21.046;2023-06-26T03:49:04;13.68;;;9.98;;
11090;SDS011;5599;52.210;21.046;2023-06-26T03:51:38;11.13;;;9.98;;
11090;SDS011;5599;52.210;21.046;2023-06-26T03:54:08;13.30;;;9.10;;
11090;SDS011;5599;52.210;21.046;2023-06-26T03:56:37;10.55;;;9.55;;
11090;SDS011;5599;52.210;21.046;2023-06-26T03:59:06;11.05;;;8.35;;
11090;SDS011;5599;52.210;21.046;2023-06-26T04:01:35;10.35;;;9.35;;
11090;SDS011;5599;52.210;21.046;2023-06-26T04:04:05;9.65;;;8.65;;
11090;SDS011;5599;52.210;21.046;2023-06-26T04:06:35;11.30;;;8.93;;
11090;SDS011;5599;52.210;21.046;2023-06-26T04:09:05;9.30;;;8.50;;
11090;SDS011;5599;52.210;21.046;2023-06-26T04:11:34;10.30;;;8.60;;
11090;SDS011;5599;52.210;21.046;2023-06-26T04:14:04;11.88;;;9.00;;
11090;SDS011;5599;52.210;21.046;2023-06-26T04:16:33;10.38;;;8.50;;
11090;SDS011;5599;52.210;21.046;2023-06-26T04:19:02;9.32;;;8.40;;
11090;SDS011;5599;52.210;21.046;2023-06-26T04:21:32;10.00;;;9.02;;
11090;SDS011;5599;52.210;21.046;2023-06-26T04:24:01;10.48;;;9.48;;
11090;SDS011;5599;52.210;21.046;2023-06-26T04:26:31;10.40;;;9.38;;
11090;SDS011;5599;52.210;21.046;2023-06-26T04:29:00;9.65;;;8.55;;
11090;SDS011;5599;52.210;21.046;2023-06-26T04:31:30;9.77;;;8.88;;
11090;SDS011;5599;52.210;21.046;2023-06-26T04:33:59;11.50;;;10.43;;
11090;SDS011;5599;52.210;21.046;2023-06-26T04:36:28;9.63;;;8.85;;
11090;SDS011;5599;52.210;21.046;2023-06-26T04:38:58;12.35;;;9.27;;
11090;SDS011;5599;52.210;21.046;2023-06-26T04:41:27;10.52;;;9.45;;
11090;SDS011;5599;52.210;21.046;2023-06-26T04:43:58;13.55;;;9.70;;
11090;SDS011;5599;52.210;21.046;2023-06-26T04:46:27;13.27;;;9.57;;
11090;SDS011;5599;52.210;21.046;2023-06-26T04:48:57;14.45;;;9.90;;
11090;SDS011;5599;52.210;21.046;2023-06-26T04:51:26;11.63;;;10.07;;
11090;SDS011;5599;52.210;21.046;2023-06-26T04:53:55;10.60;;;9.40;;
11090;SDS011;5599;52.210;21.046;2023-06-26T04:56:25;10.70;;;9.73;;
11090;SDS011;5599;52.210;21.046;2023-06-26T04:58:54;10.77;;;9.90;;
11090;SDS011;5599;52.210;21.046;2023-06-26T05:01:24;12.65;;;9.90;;
11090;SDS011;5599;52.210;21.046;2023-06-26T05:03:56;12.18;;;9.73;;
11090;SDS011;5599;52.210;21.046;2023-06-26T05:06:26;10.77;;;9.70;;
11090;SDS011;5599;52.210;21.046;2023-06-26T05:08:55;12.77;;;9.65;;
11090;SDS011;5599;52.210;21.046;2023-06-26T05:11:24;11.73;;;9.73;;
11090;SDS011;5599;52.210;21.046;2023-06-26T05:13:53;10.63;;;9.50;;
11090;SDS011;5599;52.210;21.046;2023-06-26T05:16:23;10.98;;;9.88;;
11090;SDS011;5599;52.210;21.046;2023-06-26T05:18:53;10.77;;;9.68;;
11090;SDS011;5599;52.210;21.046;2023-06-26T05:21:22;10.80;;;9.70;;
11090;SDS011;5599;52.210;21.046;2023-06-26T05:23:52;11.63;;;9.95;;
11090;SDS011;5599;52.210;21.046;2023-06-26T05:26:24;10.63;;;9.18;;
11090;SDS011;5599;52.210;21.046;2023-06-26T05:28:55;9.85;;;9.05;;
11090;SDS011;5599;52.210;21.046;2023-06-26T05:31:26;10.38;;;9.00;;
11090;SDS011;5599;52.210;21.046;2023-06-26T05:33:56;11.68;;;9.25;;
11090;SDS011;5599;52.210;21.046;2023-06-26T05:36:28;13.82;;;8.40;;
11090;SDS011;5599;52.210;21.046;2023-06-26T05:39:00;12.20;;;8.82;;
11090;SDS011;5599;52.210;21.046;2023-06-26T05:41:30;11.90;;;9.63;;
11090;SDS011;5599;52.210;21.046;2023-06-26T05:44:00;11.27;;;9.25;;
11090;SDS011;5599;52.210;21.046;2023-06-26T05:46:30;9.20;;;8.38;;
11090;SDS011;5599;52.210;21.046;2023-06-26T05:48:59;9.55;;;8.65;;
11090;SDS011;5599;52.210;21.046;2023-06-26T05:51:29;9.85;;;7.93;;
11090;SDS011;5599;52.210;21.046;2023-06-26T05:53:59;11.23;;;9.13;;
11090;SDS011;5599;52.210;21.046;2023-06-26T05:56:28;12.40;;;8.80;;
11090;SDS011;5599;52.210;21.046;2023-06-26T05:58:58;9.80;;;8.80;;
11090;SDS011;5599;52.210;21.046;2023-06-26T06:01:28;9.13;;;7.57;;
11090;SDS011;5599;52.210;21.046;2023-06-26T06:03:58;10.10;;;8.13;;
11090;SDS011;5599;52.210;21.046;2023-06-26T06:06:28;11.40;;;7.95;;
11090;SDS011;5599;52.210;21.046;2023-06-26T06:08:57;7.68;;;6.93;;
11090;SDS011;5599;52.210;21.046;2023-06-26T06:11:29;7.90;;;7.10;;
11090;SDS011;5599;52.210;21.046;2023-06-26T06:13:58;8.57;;;7.10;;
11090;SDS011;5599;52.210;21.046;2023-06-26T06:16:27;12.52;;;6.57;;
11090;SDS011;5599;52.210;21.046;2023-06-26T06:18:56;10.15;;;6.97;;
11090;SDS011;5599;52.210;21.046;2023-06-26T06:21:26;8.63;;;6.95;;
11090;SDS011;5599;52.210;21.046;2023-06-26T06:23:56;11.35;;;6.57;;
11090;SDS011;5599;52.210;21.046;2023-06-26T06:26:25;15.68;;;7.95;;
11090;SDS011;5599;52.210;21.046;2023-06-26T06:28:54;7.18;;;6.47;;
11090;SDS011;5599;52.210;21.046;2023-06-26T06:31:23;18.02;;;10.07;;
11090;SDS011;5599;52.210;21.046;2023-06-26T06:33:52;15.95;;;9.98;;
11090;SDS011;5599;52.210;21.046;2023-06-26T06:36:21;10.32;;;6.93;;
11090;SDS011;5599;52.210;21.046;2023-06-26T06:38:52;7.30;;;6.55;;
11090;SDS011;5599;52.210;21.046;2023-06-26T06:41:21;11.95;;;7.18;;
11090;SDS011;5599;52.210;21.046;2023-06-26T06:43:50;9.18;;;6.10;;
11090;SDS011;5599;52.210;21.046;2023-06-26T06:46:19;6.20;;;5.50;;
11090;SDS011;5599;52.210;21.046;2023-06-26T06:48:49;8.38;;;6.10;;
11090;SDS011;5599;52.210;21.046;2023-06-26T06:51:18;9.68;;;5.80;;
11090;SDS011;5599;52.210;21.046;2023-06-26T06:53:47;6.68;;;5.28;;
11090;SDS011;5599;52.210;21.046;2023-06-26T06:56:19;6.70;;;5.18;;
11090;SDS011;5599;52.210;21.046;2023-06-26T06:58:48;10.68;;;6.68;;
11090;SDS011;5599;52.210;21.046;2023-06-26T07:01:17;8.38;;;6.22;;
11090;SDS011;5599;52.210;21.046;2023-06-26T07:03:47;9.68;;;5.97;;
11090;SDS011;5599;52.210;21.046;2023-06-26T07:06:16;5.20;;;4.80;;
11090;SDS011;5599;52.210;21.046;2023-06-26T07:08:45;5.80;;;4.90;;
11090;SDS011;5599;52.210;21.046;2023-06-26T07:11:14;5.65;;;5.00;;
11090;SDS011;5599;52.210;21.046;2023-06-26T07:13:47;6.53;;;4.97;;
11090;SDS011;5599;52.210;21.046;2023-06-26T07:16:21;4.88;;;4.30;;
11090;SDS011;5599;52.210;21.046;2023-06-26T07:18:50;4.70;;;4.28;;
11090;SDS011;5599;52.210;21.046;2023-06-26T07:21:19;6.45;;;4.45;;
11090;SDS011;5599;52.210;21.046;2023-06-26T07:23:52;4.97;;;4.47;;
11090;SDS011;5599;52.210;21.046;2023-06-26T07:26:21;5.07;;;4.57;;
11090;SDS011;5599;52.210;21.046;2023-06-26T07:29:07;4.95;;;4.55;;
11090;SDS011;5599;52.210;21.046;2023-06-26T07:31:37;4.93;;;4.43;;
11090;SDS011;5599;52.210;21.046;2023-06-26T07:34:06;5.30;;;4.47;;
11090;SDS011;5599;52.210;21.046;2023-06-26T07:36:35;4.68;;;4.30;;
11090;SDS011;5599;52.210;21.046;2023-06-26T07:39:05;6.43;;;4.88;;
11090;SDS011;5599;52.210;21.046;2023-06-26T07:41:38;7.38;;;4.40;;
11090;SDS011;5599;52.210;21.046;2023-06-26T07:44:08;4.72;;;4.32;;
11090;SDS011;5599;52.210;21.046;2023-06-26T07:46:37;4.63;;;4.10;;
11090;SDS011;5599;52.210;21.046;2023-06-26T07:49:07;6.03;;;4.22;;
11090;SDS011;5599;52.210;21.046;2023-06-26T07:51:36;7.53;;;4.43;;
11090;SDS011;5599;52.210;21.046;2023-06-26T07:54:05;6.10;;;4.50;;
11090;SDS011;5599;52.210;21.046;2023-06-26T07:56:35;4.60;;;4.28;;
11090;SDS011;5599;52.210;21.046;2023-06-26T07:59:22;4.18;;;3.88;;
11090;SDS011;5599;52.210;21.046;2023-06-26T08:01:53;4.50;;;4.10;;
11090;SDS011;5599;52.210;21.046;2023-06-26T08:04:23;6.93;;;4.30;;
11090;SDS011;5599;52.210;21.046;2023-06-26T08:06:55;5.32;;;4.22;;
11090;SDS011;5599;52.210;21.046;2023-06-26T08:09:25;4.88;;;4.30;;
11090;SDS011;5599;52.210;21.046;2023-06-26T08:11:55;4.25;;;3.95;;
11090;SDS011;5599;52.210;21.046;2023-06-26T08:14:27;4.88;;;4.22;;
11090;SDS011;5599;52.210;21.046;2023-06-26T08:16:56;5.88;;;4.55;;
11090;SDS011;5599;52.210;21.046;2023-06-26T08:19:26;4.85;;;4.43;;
11090;SDS011;5599;52.210;21.046;2023-06-26T08:21:55;4.82;;;4.20;;
11090;SDS011;5599;52.210;21.046;2023-06-26T08:24:25;4.70;;;4.30;;
11090;SDS011;5599;52.210;21.046;2023-06-26T08:26:54;4.20;;;3.80;;
11090;SDS011;5599;52.210;21.046;2023-06-26T08:29:23;5.28;;;4.10;;
11090;SDS011;5599;52.210;21.046;2023-06-26T08:31:53;5.03;;;4.15;;
11090;SDS011;5599;52.210;21.046;2023-06-26T08:34:23;5.75;;;4.00;;
11090;SDS011;5599;52.210;21.046;2023-06-26T08:36:53;3.90;;;3.60;;
11090;SDS011;5599;52.210;21.046;2023-06-26T08:39:22;4.97;;;4.20;;
11090;SDS011;5599;52.210;21.046;2023-06-26T08:41:52;3.72;;;3.42;;
11090;SDS011;5599;52.210;21.046;2023-06-26T08:44:21;4.45;;;4.05;;
11090;SDS011;5599;52.210;21.046;2023-06-26T08:46:51;3.72;;;3.50;;
11090;SDS011;5599;52.210;21.046;2023-06-26T08:49:24;4.20;;;3.83;;
11090;SDS011;5599;52.210;21.046;2023-06-26T08:52:06;4.10;;;3.80;;
11090;SDS011;5599;52.210;21.046;2023-06-26T08:54:45;4.38;;;3.72;;
11090;SDS011;5599;52.210;21.046;2023-06-26T08:57:18;6.10;;;4.00;;
11090;SDS011;5599;52.210;21.046;2023-06-26T08:59:47;4.55;;;4.07;;
11090;SDS011;5599;52.210;21.046;2023-06-26T09:02:18;4.35;;;3.97;;
11090;SDS011;5599;52.210;21.046;2023-06-26T09:04:57;6.45;;;4.30;;
11090;SDS011;5599;52.210;21.046;2023-06-26T09:07:26;6.30;;;4.10;;
11090;SDS011;5599;52.210;21.046;2023-06-26T09:09:56;4.97;;;4.53;;
11090;SDS011;5599;52.210;21.046;2023-06-26T09:12:26;6.88;;;4.70;;
11090;SDS011;5599;52.210;21.046;2023-06-26T09:14:56;4.57;;;4.18;;
11090;SDS011;5599;52.210;21.046;2023-06-26T09:17:28;4.50;;;3.97;;
11090;SDS011;5599;52.210;21.046;2023-06-26T09:19:58;4.20;;;3.90;;
11090;SDS011;5599;52.210;21.046;2023-06-26T09:22:28;4.80;;;3.83;;
11090;SDS011;5599;52.210;21.046;2023-06-26T09:24:58;4.32;;;3.92;;
11090;SDS011;5599;52.210;21.046;2023-06-26T09:27:27;4.65;;;4.00;;
11090;SDS011;5599;52.210;21.046;2023-06-26T09:29:56;5.97;;;4.15;;
11090;SDS011;5599;52.210;21.046;2023-06-26T09:32:26;3.85;;;3.55;;
11090;SDS011;5599;52.210;21.046;2023-06-26T09:34:57;3.65;;;3.35;;
11090;SDS011;5599;52.210;21.046;2023-06-26T09:37:27;4.15;;;3.55;;
11090;SDS011;5599;52.210;21.046;2023-06-26T09:39:56;5.25;;;3.78;;
11090;SDS011;5599;52.210;21.046;2023-06-26T09:42:26;4.70;;;3.95;;
11090;SDS011;5599;52.210;21.046;2023-06-26T09:44:55;4.82;;;4.35;;
11090;SDS011;5599;52.210;21.046;2023-06-26T09:47:25;6.03;;;3.88;;
11090;SDS011;5599;52.210;21.046;2023-06-26T09:49:54;3.92;;;3.63;;
11090;SDS011;5599;52.210;21.046;2023-06-26T09:52:25;4.68;;;3.97;;
11090;SDS011;5599;52.210;21.046;2023-06-26T09:55:07;4.55;;;4.15;;
11090;SDS011;5599;52.210;21.046;2023-06-26T09:57:37;3.85;;;3.55;;
11090;SDS011;5599;52.210;21.046;2023-06-26T10:00:07;4.28;;;3.90;;
11090;SDS011;5599;52.210;21.046;2023-06-26T10:02:40;6.15;;;4.07;;
11090;SDS011;5599;52.210;21.046;2023-06-26T10:05:10;5.15;;;3.78;;
11090;SDS011;5599;52.210;21.046;2023-06-26T10:07:41;4.40;;;3.70;;
11090;SDS011;5599;52.210;21.046;2023-06-26T10:10:10;4.38;;;4.07;;
11090;SDS011;5599;52.210;21.046;2023-06-26T10:12:40;5.10;;;4.60;;
11090;SDS011;5599;52.210;21.046;2023-06-26T10:15:16;4.38;;;3.97;;
11090;SDS011;5599;52.210;21.046;2023-06-26T10:17:46;4.63;;;4.15;;
11090;SDS011;5599;52.210;21.046;2023-06-26T10:20:17;4.32;;;3.95;;
11090;SDS011;5599;52.210;21.046;2023-06-26T10:22:48;4.70;;;3.72;;
11090;SDS011;5599;52.210;21.046;2023-06-26T10:25:18;4.68;;;3.90;;
11090;SDS011;5599;52.210;21.046;2023-06-26T10:27:50;5.47;;;3.97;;
11090;SDS011;5599;52.210;21.046;2023-06-26T10:30:24;5.13;;;4.15;;
11090;SDS011;5599;52.210;21.046;2023-06-26T10:32:56;5.75;;;4.72;;
11090;SDS011;5599;52.210;21.046;2023-06-26T10:35:28;5.22;;;4.55;;
11090;SDS011;5599;52.210;21.046;2023-06-26T10:38:03;6.65;;;4.80;;
11090;SDS011;5599;52.210;21.046;2023-06-26T10:40:40;4.75;;;4.35;;
11090;SDS011;5599;52.210;21.046;2023-06-26T10:43:11;7.25;;;4.85;;
11090;SDS011;5599;52.210;21.046;2023-06-26T10:45:45;5.28;;;4.20;;
11090;SDS011;5599;52.210;21.046;2023-06-26T10:48:19;5.00;;;3.85;;
11090;SDS011;5599;52.210;21.046;2023-06-26T10:50:50;4.22;;;3.80;;
11090;SDS011;5599;52.210;21.046;2023-06-26T10:53:24;4.80;;;4.40;;
11090;SDS011;5599;52.210;21.046;2023-06-26T10:56:01;5.40;;;4.90;;
11090;SDS011;5599;52.210;21.046;2023-06-26T10:58:33;4.97;;;4.13;;
11090;SDS011;5599;52.210;21.046;2023-06-26T11:01:19;4.80;;;4.13;;
11090;SDS011;5599;52.210;21.046;2023-06-26T11:04:00;4.38;;;3.85;;
11090;SDS011;5599;52.210;21.046;2023-06-26T11:06:33;5.80;;;4.40;;
11090;SDS011;5599;52.210;21.046;2023-06-26T11:09:08;4.25;;;3.85;;
11090;SDS011;5599;52.210;21.046;2023-06-26T11:11:55;4.75;;;3.88;;
11090;SDS011;5599;52.210;21.046;2023-06-26T11:14:29;5.47;;;3.97;;
11090;SDS011;5599;52.210;21.046;2023-06-26T11:17:01;4.45;;;4.03;;
11090;SDS011;5599;52.210;21.046;2023-06-26T11:19:32;4.55;;;4.13;;
11090;SDS011;5599;52.210;21.046;2023-06-26T11:22:02;4.38;;;3.97;;
11090;SDS011;5599;52.210;21.046;2023-06-26T11:24:34;4.78;;;4.28;;
11090;SDS011;5599;52.210;21.046;2023-06-26T11:27:04;3.92;;;3.63;;
11090;SDS011;5599;52.210;21.046;2023-06-26T11:29:33;5.95;;;4.03;;
11090;SDS011;5599;52.210;21.046;2023-06-26T11:32:04;3.97;;;3.67;;
11090;SDS011;5599;52.210;21.046;2023-06-26T11:34:34;4.38;;;3.40;;
11090;SDS011;5599;52.210;21.046;2023-06-26T11:37:05;5.07;;;3.90;;
11090;SDS011;5599;52.210;21.046;2023-06-26T11:39:36;3.83;;;3.53;;
11090;SDS011;5599;52.210;21.046;2023-06-26T11:42:05;4.00;;;3.70;;
11090;SDS011;5599;52.210;21.046;2023-06-26T11:44:39;4.57;;;3.85;;
11090;SDS011;5599;52.210;21.046;2023-06-26T11:47:13;4.85;;;3.97;;
11090;SDS011;5599;52.210;21.046;2023-06-26T11:49:44;4.18;;;3.78;;
11090;SDS011;5599;52.210;21.046;2023-06-26T11:52:14;5.60;;;3.70;;
11090;SDS011;5599;52.210;21.046;2023-06-26T11:54:46;7.03;;;4.03;;
11090;SDS011;5599;52.210;21.046;2023-06-26T11:57:16;4.13;;;3.60;;
11090;SDS011;5599;52.210;21.046;2023-06-26T11:59:49;4.45;;;4.05;;
11090;SDS011;5599;52.210;21.046;2023-06-26T12:02:20;4.18;;;3.88;;
11090;SDS011;5599;52.210;21.046;2023-06-26T12:04:50;5.75;;;3.60;;
11090;SDS011;5599;52.210;21.046;2023-06-26T12:07:19;3.97;;;3.45;;
11090;SDS011;5599;52.210;21.046;2023-06-26T12:09:51;4.75;;;3.47;;
11090;SDS011;5599;52.210;21.046;2023-06-26T12:12:22;5.10;;;3.55;;
11090;SDS011;5599;52.210;21.046;2023-06-26T12:14:52;3.95;;;3.50;;
11090;SDS011;5599;52.210;21.046;2023-06-26T12:17:22;5.30;;;4.03;;
11090;SDS011;5599;52.210;21.046;2023-06-26T12:19:52;3.53;;;3.22;;
11090;SDS011;5599;52.210;21.046;2023-06-26T12:22:21;4.03;;;3.63;;
11090;SDS011;5599;52.210;21.046;2023-06-26T12:24:52;3.47;;;3.17;;
11090;SDS011;5599;52.210;21.046;2023-06-26T12:27:25;4.90;;;3.40;;
11090;SDS011;5599;52.210;21.046;2023-06-26T12:29:55;4.60;;;3.40;;
11090;SDS011;5599;52.210;21.046;2023-06-26T12:32:25;4.00;;;3.55;;
11090;SDS011;5599;52.210;21.046;2023-06-26T12:34:55;3.38;;;2.90;;
11090;SDS011;5599;52.210;21.046;2023-06-26T12:37:25;4.53;;;3.58;;
11090;SDS011;5599;52.210;21.046;2023-06-26T12:39:57;5.63;;;3.50;;
11090;SDS011;5599;52.210;21.046;2023-06-26T12:42:27;3.80;;;3.42;;
11090;SDS011;5599;52.210;21.046;2023-06-26T12:44:57;4.05;;;3.65;;
11090;SDS011;5599;52.210;21.046;2023-06-26T12:47:26;4.80;;;3.42;;
11090;SDS011;5599;52.210;21.046;2023-06-26T12:49:58;3.42;;;3.13;;
11090;SDS011;5599;52.210;21.046;2023-06-26T12:52:32;3.42;;;3.13;;
11090;SDS011;5599;52.210;21.046;2023-06-26T12:55:04;6.60;;;3.63;;
11090;SDS011;5599;52.210;21.046;2023-06-26T12:57:34;4.35;;;3.40;;
11090;SDS011;5599;52.210;21.046;2023-06-26T13:00:04;5.20;;;4.20;;
11090;SDS011;5599;52.210;21.046;2023-06-26T13:02:34;3.90;;;3.50;;
11090;SDS011;5599;52.210;21.046;2023-06-26T13:05:04;5.43;;;3.70;;
11090;SDS011;5599;52.210;21.046;2023-06-26T13:07:33;5.97;;;3.85;;
11090;SDS011;5599;52.210;21.046;2023-06-26T13:10:04;5.03;;;3.80;;
11090;SDS011;5599;52.210;21.046;2023-06-26T13:12:35;3.85;;;3.20;;
11090;SDS011;5599;52.210;21.046;2023-06-26T13:15:05;3.33;;;3.13;;
11090;SDS011;5599;52.210;21.046;2023-06-26T13:17:36;3.97;;;3.25;;
11090;SDS011;5599;52.210;21.046;2023-06-26T13:20:05;4.22;;;3.40;;
11090;SDS011;5599;52.210;21.046;2023-06-26T13:22:36;4.18;;;3.55;;
11090;SDS011;5599;52.210;21.046;2023-06-26T13:25:07;3.75;;;3.45;;
11090;SDS011;5599;52.210;21.046;2023-06-26T13:27:38;4.05;;;3.63;;
11090;SDS011;5599;52.210;21.046;2023-06-26T13:30:08;3.75;;;3.45;;
11090;SDS011;5599;52.210;21.046;2023-06-26T13:32:38;4.47;;;3.33;;
11090;SDS011;5599;52.210;21.046;2023-06-26T13:35:07;4.57;;;3.55;;
11090;SDS011;5599;52.210;21.046;2023-06-26T13:37:38;3.35;;;3.05;;
11090;SDS011;5599;52.210;21.046;2023-06-26T13:40:09;3.45;;;3.15;;
11090;SDS011;5599;52.210;21.046;2023-06-26T13:42:39;4.18;;;3.80;;
11090;SDS011;5599;52.210;21.046;2023-06-26T13:45:09;3.35;;;3.08;;
11090;SDS011;5599;52.210;21.046;2023-06-26T13:47:52;3.67;;;3.35;;
11090;SDS011;5599;52.210;21.046;2023-06-26T13:50:21;3.80;;;3.42;;
11090;SDS011;5599;52.210;21.046;2023-06-26T13:52:51;3.88;;;3.50;;
11090;SDS011;5599;52.210;21.046;2023-06-26T13:55:21;3.47;;;3.17;;
11090;SDS011;5599;52.210;21.046;2023-06-26T13:57:51;4.10;;;3.70;;
11090;SDS011;5599;52.210;21.046;2023-06-26T14:00:20;4.18;;;3.60;;
11090;SDS011;5599;52.210;21.046;2023-06-26T14:02:50;4.22;;;3.45;;
11090;SDS011;5599;52.210;21.046;2023-06-26T14:05:19;3.67;;;3.38;;
11090;SDS011;5599;52.210;21.046;2023-06-26T14:08:01;5.65;;;3.28;;
11090;SDS011;5599;52.210;21.046;2023-06-26T14:10:33;4.85;;;3.10;;
11090;SDS011;5599;52.210;21.046;2023-06-26T14:13:04;3.72;;;3.20;;
11090;SDS011;5599;52.210;21.046;2023-06-26T14:15:33;3.63;;;3.33;;
11090;SDS011;5599;52.210;21.046;2023-06-26T14:18:03;3.95;;;3.22;;
11090;SDS011;5599;52.210;21.046;2023-06-26T14:20:33;3.90;;;3.60;;
11090;SDS011;5599;52.210;21.046;2023-06-26T14:23:03;3.38;;;3.15;;
11090;SDS011;5599;52.210;21.046;2023-06-26T14:25:34;3.88;;;3.50;;
11090;SDS011;5599;52.210;21.046;2023-06-26T14:28:04;3.50;;;3.20;;
11090;SDS011;5599;52.210;21.046;2023-06-26T14:30:33;4.25;;;3.50;;
11090;SDS011;5599;52.210;21.046;2023-06-26T14:33:03;5.97;;;3.70;;
11090;SDS011;5599;52.210;21.046;2023-06-26T14:35:32;4.72;;;3.35;;
11090;SDS011;5599;52.210;21.046;2023-06-26T14:38:02;3.50;;;3.20;;
11090;SDS011;5599;52.210;21.046;2023-06-26T14:40:33;3.60;;;3.30;;
11090;SDS011;5599;52.210;21.046;2023-06-26T14:43:03;3.75;;;3.45;;
11090;SDS011;5599;52.210;21.046;2023-06-26T14:45:33;4.07;;;3.20;;
11090;SDS011;5599;52.210;21.046;2023-06-26T14:48:03;4.00;;;3.60;;
11090;SDS011;5599;52.210;21.046;2023-06-26T14:50:33;5.10;;;3.42;;
11090;SDS011;5599;52.210;21.046;2023-06-26T14:53:03;3.70;;;3.25;;
11090;SDS011;5599;52.210;21.046;2023-06-26T14:55:33;3.65;;;3.33;;
11090;SDS011;5599;52.210;21.046;2023-06-26T14:58:03;4.38;;;3.60;;
11090;SDS011;5599;52.210;21.046;2023-06-26T15:00:32;3.70;;;3.40;;